sensor_id;sensor_type;location;lat;lon;timestamp;pressure;altitude;pressure_sealevel;temperature;humidity
60228;BME280;46091;46.512;6.626;2023-03-03T06:40:32;97032.34;;;5.15;63.65
60228;BME280;46091;46.512;6.626;2023-03-03T06:42:35;97034.81;;;5.43;63.32
60228;BME280;46091;46.512;6.626;2023-03-03T06:44:38;97029.84;;;5.66;63.06
60228;BME280;46091;46.512;6.626;2023-03-03T06:46:41;97039.28;;;5.84;62.72
60228;BME280;46091;46.512;6.626;2023-03-03T06:48:44;97037.09;;;5.98;62.54
60228;BME280;46091;46.512;6.626;2023-03-03T06:50:47;97038.44;;;6.10;62.24
60228;BME280;46091;46.512;6.626;2023-03-03T06:52:59;97049.63;;;6.20;62.12
60228;BME280;46091;46.512;6.626;2023-03-03T06:55:10;97035.56;;;6.29;62.09
60228;BME280;46091;46.512;6.626;2023-03-03T06:57:21;97043.13;;;6.40;62.04
60228;BME280;46091;46.512;6.626;2023-03-03T06:59:26;97044.78;;;6.50;61.76
60228;BME280;46091;46.512;6.626;2023-03-03T07:01:34;97047.56;;;6.56;61.42
60228;BME280;46091;46.512;6.626;2023-03-03T07:03:37;97048.75;;;6.62;61.42
60228;BME280;46091;46.512;6.626;2023-03-03T07:05:41;97048.41;;;6.65;61.52
60228;BME280;46091;46.512;6.626;2023-03-03T07:07:44;97054.69;;;6.72;61.43
60228;BME280;46091;46.512;6.626;2023-03-03T07:09:48;97063.88;;;6.84;61.14
60228;BME280;46091;46.512;6.626;2023-03-03T07:11:53;97057.31;;;6.88;61.12
60228;BME280;46091;46.512;6.626;2023-03-03T07:13:59;97058.31;;;6.95;61.02
60228;BME280;46091;46.512;6.626;2023-03-03T07:16:09;97067.50;;;6.99;60.64
60228;BME280;46091;46.512;6.626;2023-03-03T07:18:24;97064.22;;;7.06;60.99
60228;BME280;46091;46.512;6.626;2023-03-03T07:20:34;97063.72;;;7.10;60.71
60228;BME280;46091;46.512;6.626;2023-03-03T07:22:37;97070.31;;;7.14;60.58
60228;BME280;46091;46.512;6.626;2023-03-03T07:24:40;97065.88;;;7.15;60.68
60228;BME280;46091;46.512;6.626;2023-03-03T07:26:45;97065.53;;;7.18;60.89
60228;BME280;46091;46.512;6.626;2023-03-03T07:28:53;97069.63;;;7.20;60.83
60228;BME280;46091;46.512;6.626;2023-03-03T07:30:57;97072.44;;;7.27;60.42
60228;BME280;46091;46.512;6.626;2023-03-03T07:33:01;97067.66;;;7.30;60.43
60228;BME280;46091;46.512;6.626;2023-03-03T07:35:17;97065.50;;;7.34;60.20
60228;BME280;46091;46.512;6.626;2023-03-03T07:37:30;97079.66;;;7.41;60.17
60228;BME280;46091;46.512;6.626;2023-03-03T07:39:38;97069.78;;;7.43;60.21
60228;BME280;46091;46.512;6.626;2023-03-03T07:41:42;97071.25;;;7.46;59.95
60228;BME280;46091;46.512;6.626;2023-03-03T07:43:48;97070.94;;;7.41;59.91
60228;BME280;46091;46.512;6.626;2023-03-03T07:46:01;97079.00;;;7.39;60.01
60228;BME280;46091;46.512;6.626;2023-03-03T07:48:15;97072.75;;;7.40;59.81
60228;BME280;46091;46.512;6.626;2023-03-03T07:50:21;97075.88;;;7.44;59.79
60228;BME280;46091;46.512;6.626;2023-03-03T07:52:28;97073.41;;;7.42;59.59
60228;BME280;46091;46.512;6.626;2023-03-03T07:54:35;97070.25;;;7.47;59.44
60228;BME280;46091;46.512;6.626;2023-03-03T07:56:40;97075.22;;;7.50;59.57
60228;BME280;46091;46.512;6.626;2023-03-03T07:58:43;97069.13;;;7.49;59.59
60228;BME280;46091;46.512;6.626;2023-03-03T08:03:33;97081.78;;;7.54;59.24
60228;BME280;46091;46.512;6.626;2023-03-03T08:05:39;97076.97;;;7.57;59.23
60228;BME280;46091;46.512;6.626;2023-03-03T08:07:42;97074.34;;;7.57;59.07
60228;BME280;46091;46.512;6.626;2023-03-03T08:09:49;97074.88;;;7.61;59.03
60228;BME280;46091;46.512;6.626;2023-03-03T08:11:55;97074.03;;;7.61;59.29
60228;BME280;46091;46.512;6.626;2023-03-03T08:14:00;97081.94;;;7.61;59.20
60228;BME280;46091;46.512;6.626;2023-03-03T08:16:24;97082.88;;;7.68;58.86
60228;BME280;46091;46.512;6.626;2023-03-03T08:18:34;97079.13;;;7.70;59.08
60228;BME280;46091;46.512;6.626;2023-03-03T08:20:43;97076.81;;;7.67;59.04
60228;BME280;46091;46.512;6.626;2023-03-03T08:22:46;97076.31;;;7.72;58.95
60228;BME280;46091;46.512;6.626;2023-03-03T08:24:49;97077.78;;;7.74;58.87
60228;BME280;46091;46.512;6.626;2023-03-03T08:26:52;97085.22;;;7.71;58.87
60228;BME280;46091;46.512;6.626;2023-03-03T08:28:55;97085.22;;;7.71;59.07
60228;BME280;46091;46.512;6.626;2023-03-03T08:30:58;97080.59;;;7.73;59.01
60228;BME280;46091;46.512;6.626;2023-03-03T08:33:20;97079.91;;;7.79;58.49
60228;BME280;46091;46.512;6.626;2023-03-03T08:35:25;97083.19;;;7.81;58.76
60228;BME280;46091;46.512;6.626;2023-03-03T08:37:27;97081.22;;;7.83;58.74
60228;BME280;46091;46.512;6.626;2023-03-03T08:39:31;97078.25;;;7.86;58.54
60228;BME280;46091;46.512;6.626;2023-03-03T08:41:33;97078.06;;;7.87;58.27
60228;BME280;46091;46.512;6.626;2023-03-03T08:43:36;97071.66;;;7.90;58.24
60228;BME280;46091;46.512;6.626;2023-03-03T08:45:40;97066.88;;;7.94;58.11
60228;BME280;46091;46.512;6.626;2023-03-03T08:47:45;97077.53;;;8.00;58.13
60228;BME280;46091;46.512;6.626;2023-03-03T08:49:48;97077.88;;;7.97;58.06
60228;BME280;46091;46.512;6.626;2023-03-03T08:51:52;97081.50;;;8.04;58.06
60228;BME280;46091;46.512;6.626;2023-03-03T08:53:56;97079.81;;;8.03;57.89
60228;BME280;46091;46.512;6.626;2023-03-03T08:56:00;97076.34;;;8.11;57.70
60228;BME280;46091;46.512;6.626;2023-03-03T08:58:03;97083.09;;;8.13;57.50
60228;BME280;46091;46.512;6.626;2023-03-03T09:00:09;97082.75;;;8.16;57.55
60228;BME280;46091;46.512;6.626;2023-03-03T09:02:13;97086.38;;;8.15;57.53
60228;BME280;46091;46.512;6.626;2023-03-03T09:04:17;97079.47;;;8.14;57.47
60228;BME280;46091;46.512;6.626;2023-03-03T09:06:21;97085.53;;;8.15;57.30
60228;BME280;46091;46.512;6.626;2023-03-03T09:08:25;97086.22;;;8.17;57.42
60228;BME280;46091;46.512;6.626;2023-03-03T09:10:29;97084.41;;;8.17;57.50
60228;BME280;46091;46.512;6.626;2023-03-03T09:12:34;97090.13;;;8.21;57.11
60228;BME280;46091;46.512;6.626;2023-03-03T09:14:37;97095.06;;;8.24;57.23
60228;BME280;46091;46.512;6.626;2023-03-03T09:16:44;97085.88;;;8.20;56.96
60228;BME280;46091;46.512;6.626;2023-03-03T09:18:50;97091.94;;;8.21;57.15
60228;BME280;46091;46.512;6.626;2023-03-03T09:20:54;97088.69;;;8.18;57.14
60228;BME280;46091;46.512;6.626;2023-03-03T09:22:58;97090.97;;;8.22;57.16
60228;BME280;46091;46.512;6.626;2023-03-03T09:25:13;97082.06;;;8.23;56.89
60228;BME280;46091;46.512;6.626;2023-03-03T09:27:27;97088.78;;;8.25;56.91
60228;BME280;46091;46.512;6.626;2023-03-03T09:29:33;97094.06;;;8.25;56.84
60228;BME280;46091;46.512;6.626;2023-03-03T09:31:41;97084.84;;;8.29;56.82
60228;BME280;46091;46.512;6.626;2023-03-03T09:33:45;97091.56;;;8.32;56.39
60228;BME280;46091;46.512;6.626;2023-03-03T09:35:59;97089.75;;;8.32;56.73
60228;BME280;46091;46.512;6.626;2023-03-03T09:38:17;97090.44;;;8.34;56.62
60228;BME280;46091;46.512;6.626;2023-03-03T09:40:43;97094.53;;;8.37;56.40
60228;BME280;46091;46.512;6.626;2023-03-03T09:42:58;97090.25;;;8.36;56.38
60228;BME280;46091;46.512;6.626;2023-03-03T09:45:27;97093.06;;;8.34;56.27
60228;BME280;46091;46.512;6.626;2023-03-03T09:47:41;97091.25;;;8.35;56.18
60228;BME280;46091;46.512;6.626;2023-03-03T09:49:56;97090.09;;;8.37;56.30
60228;BME280;46091;46.512;6.626;2023-03-03T09:52:15;97085.97;;;8.43;56.32
60228;BME280;46091;46.512;6.626;2023-03-03T09:54:35;97094.50;;;8.45;55.90
60228;BME280;46091;46.512;6.626;2023-03-03T09:56:49;97094.31;;;8.46;56.19
60228;BME280;46091;46.512;6.626;2023-03-03T09:59:07;97096.09;;;8.54;56.03
60228;BME280;46091;46.512;6.626;2023-03-03T10:01:27;97096.75;;;8.56;55.86
60228;BME280;46091;46.512;6.626;2023-03-03T10:03:43;97093.94;;;8.58;55.79
60228;BME280;46091;46.512;6.626;2023-03-03T10:05:52;97092.94;;;8.59;55.68
60228;BME280;46091;46.512;6.626;2023-03-03T10:08:17;97088.50;;;8.59;55.73
60228;BME280;46091;46.512;6.626;2023-03-03T10:10:42;97096.53;;;8.66;55.80
60228;BME280;46091;46.512;6.626;2023-03-03T10:12:57;97084.81;;;8.68;55.56
60228;BME280;46091;46.512;6.626;2023-03-03T10:15:16;97094.38;;;8.69;55.85
60228;BME280;46091;46.512;6.626;2023-03-03T10:17:31;97091.09;;;8.67;55.76
60228;BME280;46091;46.512;6.626;2023-03-03T10:19:40;97084.19;;;8.66;55.23
60228;BME280;46091;46.512;6.626;2023-03-03T10:21:49;97088.81;;;8.64;55.49
60228;BME280;46091;46.512;6.626;2023-03-03T10:23:54;97090.81;;;8.62;55.62
60228;BME280;46091;46.512;6.626;2023-03-03T10:26:07;97093.09;;;8.65;55.59
60228;BME280;46091;46.512;6.626;2023-03-03T10:28:24;97099.47;;;8.71;55.19
60228;BME280;46091;46.512;6.626;2023-03-03T10:30:39;97097.59;;;8.80;55.46
60228;BME280;46091;46.512;6.626;2023-03-03T10:33:11;97099.56;;;8.86;54.95
60228;BME280;46091;46.512;6.626;2023-03-03T10:35:29;97100.19;;;8.88;55.10
60228;BME280;46091;46.512;6.626;2023-03-03T10:37:44;97093.25;;;8.95;54.87
60228;BME280;46091;46.512;6.626;2023-03-03T10:40:05;97104.94;;;8.92;54.71
60228;BME280;46091;46.512;6.626;2023-03-03T10:42:39;97097.03;;;8.92;54.62
60228;BME280;46091;46.512;6.626;2023-03-03T10:45:18;97097.56;;;8.88;54.93
60228;BME280;46091;46.512;6.626;2023-03-03T10:47:44;97107.75;;;8.91;54.75
60228;BME280;46091;46.512;6.626;2023-03-03T10:50:02;97106.75;;;8.92;54.36
60228;BME280;46091;46.512;6.626;2023-03-03T10:52:19;97106.94;;;8.90;54.66
60228;BME280;46091;46.512;6.626;2023-03-03T10:54:42;97105.97;;;8.83;54.62
60228;BME280;46091;46.512;6.626;2023-03-03T10:56:49;97115.25;;;8.79;54.63
60228;BME280;46091;46.512;6.626;2023-03-03T10:59:02;97108.78;;;8.82;54.61
60228;BME280;46091;46.512;6.626;2023-03-03T11:01:15;97106.81;;;8.84;54.50
60228;BME280;46091;46.512;6.626;2023-03-03T11:05:59;97109.97;;;8.79;54.31
60228;BME280;46091;46.512;6.626;2023-03-03T11:08:06;97110.59;;;8.81;54.19
60228;BME280;46091;46.512;6.626;2023-03-03T11:10:27;97112.09;;;8.84;54.65
60228;BME280;46091;46.512;6.626;2023-03-03T11:12:39;97114.19;;;8.88;54.25
60228;BME280;46091;46.512;6.626;2023-03-03T11:14:52;97121.56;;;8.93;54.44
60228;BME280;46091;46.512;6.626;2023-03-03T11:17:03;97117.25;;;9.00;53.96
60228;BME280;46091;46.512;6.626;2023-03-03T11:19:20;97121.16;;;9.04;54.16
60228;BME280;46091;46.512;6.626;2023-03-03T11:21:32;97116.91;;;9.03;54.13
60228;BME280;46091;46.512;6.626;2023-03-03T11:26:26;97122.81;;;9.05;54.11
60228;BME280;46091;46.512;6.626;2023-03-03T11:28:44;97109.13;;;9.10;53.94
60228;BME280;46091;46.512;6.626;2023-03-03T11:31:09;97106.47;;;9.10;53.73
60228;BME280;46091;46.512;6.626;2023-03-03T11:33:18;97107.66;;;9.07;53.84
60228;BME280;46091;46.512;6.626;2023-03-03T11:35:24;97103.19;;;9.08;53.86
60228;BME280;46091;46.512;6.626;2023-03-03T11:37:38;97102.38;;;9.07;53.77
60228;BME280;46091;46.512;6.626;2023-03-03T11:39:43;97094.47;;;9.07;53.72
60228;BME280;46091;46.512;6.626;2023-03-03T11:41:58;97097.44;;;9.04;53.75
60228;BME280;46091;46.512;6.626;2023-03-03T11:44:21;97095.16;;;9.01;53.72
60228;BME280;46091;46.512;6.626;2023-03-03T11:46:31;97100.06;;;9.04;53.49
60228;BME280;46091;46.512;6.626;2023-03-03T11:48:42;97093.34;;;9.01;53.77
60228;BME280;46091;46.512;6.626;2023-03-03T11:50:54;97099.78;;;8.99;53.61
60228;BME280;46091;46.512;6.626;2023-03-03T11:53:06;97094.53;;;8.99;53.69
60228;BME280;46091;46.512;6.626;2023-03-03T11:55:18;97091.88;;;8.99;53.56
60228;BME280;46091;46.512;6.626;2023-03-03T11:57:29;97092.97;;;9.04;53.57
60228;BME280;46091;46.512;6.626;2023-03-03T11:59:41;97091.84;;;9.07;53.54
60228;BME280;46091;46.512;6.626;2023-03-03T12:01:49;97095.75;;;9.11;53.63
60228;BME280;46091;46.512;6.626;2023-03-03T12:03:58;97090.75;;;9.16;53.04
60228;BME280;46091;46.512;6.626;2023-03-03T12:06:12;97086.47;;;9.15;53.24
60228;BME280;46091;46.512;6.626;2023-03-03T12:08:31;97079.88;;;9.19;53.34
60228;BME280;46091;46.512;6.626;2023-03-03T12:10:42;97076.75;;;9.16;53.26
60228;BME280;46091;46.512;6.626;2023-03-03T12:12:51;97084.16;;;9.20;53.10
60228;BME280;46091;46.512;6.626;2023-03-03T12:15:03;97077.13;;;9.27;52.95
60228;BME280;46091;46.512;6.626;2023-03-03T12:17:16;97082.53;;;9.34;52.85
60228;BME280;46091;46.512;6.626;2023-03-03T12:19:33;97079.09;;;9.33;52.95
60228;BME280;46091;46.512;6.626;2023-03-03T12:21:53;97073.81;;;9.33;53.14
60228;BME280;46091;46.512;6.626;2023-03-03T12:26:39;97069.91;;;9.29;53.13
60228;BME280;46091;46.512;6.626;2023-03-03T12:28:49;97069.22;;;9.27;52.85
60228;BME280;46091;46.512;6.626;2023-03-03T12:31:10;97061.69;;;9.24;53.07
60228;BME280;46091;46.512;6.626;2023-03-03T12:33:24;97065.31;;;9.23;52.78
60228;BME280;46091;46.512;6.626;2023-03-03T12:35:35;97055.59;;;9.24;52.70
60228;BME280;46091;46.512;6.626;2023-03-03T12:37:50;97061.69;;;9.24;52.57
60228;BME280;46091;46.512;6.626;2023-03-03T12:40:00;97066.94;;;9.24;52.96
60228;BME280;46091;46.512;6.626;2023-03-03T12:42:10;97059.41;;;9.21;52.75
60228;BME280;46091;46.512;6.626;2023-03-03T12:44:21;97053.31;;;9.21;52.68
60228;BME280;46091;46.512;6.626;2023-03-03T12:46:34;97054.59;;;9.25;52.87
60228;BME280;46091;46.512;6.626;2023-03-03T12:48:42;97055.22;;;9.27;52.64
60228;BME280;46091;46.512;6.626;2023-03-03T12:50:54;97053.06;;;9.30;52.70
60228;BME280;46091;46.512;6.626;2023-03-03T12:53:09;97049.06;;;9.34;52.55
60228;BME280;46091;46.512;6.626;2023-03-03T12:55:21;97053.78;;;9.39;52.58
60228;BME280;46091;46.512;6.626;2023-03-03T12:57:34;97053.63;;;9.41;52.53
60228;BME280;46091;46.512;6.626;2023-03-03T12:59:47;97055.28;;;9.42;52.51
60228;BME280;46091;46.512;6.626;2023-03-03T13:02:02;97054.28;;;9.43;52.40
60228;BME280;46091;46.512;6.626;2023-03-03T13:04:12;97053.72;;;9.47;
60228;BME280;46091;46.512;6.626;2023-03-03T13:06:27;97052.25;;;9.45;52.38
60228;BME280;46091;46.512;6.626;2023-03-03T13:08:45;97048.34;;;9.41;52.31
60228;BME280;46091;46.512;6.626;2023-03-03T13:10:56;97053.25;;;9.44;52.56
60228;BME280;46091;46.512;6.626;2023-03-03T13:13:08;97051.06;;;9.47;52.46
60228;BME280;46091;46.512;6.626;2023-03-03T13:15:18;97058.00;;;9.48;52.36
60228;BME280;46091;46.512;6.626;2023-03-03T13:17:36;97050.25;;;9.47;52.34
60228;BME280;46091;46.512;6.626;2023-03-03T13:19:44;97058.63;;;9.50;52.51
60228;BME280;46091;46.512;6.626;2023-03-03T13:21:54;97065.09;;;9.48;52.32
60228;BME280;46091;46.512;6.626;2023-03-03T13:24:13;97056.16;;;9.34;52.50
60228;BME280;46091;46.512;6.626;2023-03-03T13:26:24;97057.97;;;9.33;52.76
60228;BME280;46091;46.512;6.626;2023-03-03T13:28:35;97064.88;;;9.34;52.48
60228;BME280;46091;46.512;6.626;2023-03-03T13:30:46;97062.94;;;9.28;52.57
60228;BME280;46091;46.512;6.626;2023-03-03T13:32:55;97068.59;;;9.25;52.96
60228;BME280;46091;46.512;6.626;2023-03-03T13:35:06;97056.22;;;9.26;52.79
60228;BME280;46091;46.512;6.626;2023-03-03T13:37:19;97060.16;;;9.30;52.52
60228;BME280;46091;46.512;6.626;2023-03-03T13:39:24;97058.16;;;9.32;52.80
60228;BME280;46091;46.512;6.626;2023-03-03T13:41:30;97059.34;;;9.29;52.53
60228;BME280;46091;46.512;6.626;2023-03-03T13:43:42;97058.53;;;9.29;52.61
60228;BME280;46091;46.512;6.626;2023-03-03T13:45:55;97051.25;;;9.31;52.38
60228;BME280;46091;46.512;6.626;2023-03-03T13:48:04;97056.78;;;9.36;52.19
60228;BME280;46091;46.512;6.626;2023-03-03T13:50:15;97056.97;;;9.34;52.40
60228;BME280;46091;46.512;6.626;2023-03-03T13:52:26;97056.97;;;9.34;52.46
60228;BME280;46091;46.512;6.626;2023-03-03T13:55:00;97055.69;;;9.30;52.29
60228;BME280;46091;46.512;6.626;2023-03-03T13:57:19;97052.41;;;9.28;52.69
60228;BME280;46091;46.512;6.626;2023-03-03T13:59:35;97058.97;;;9.32;52.41
60228;BME280;46091;46.512;6.626;2023-03-03T14:01:52;97057.59;;;9.37;52.24
60228;BME280;46091;46.512;6.626;2023-03-03T14:04:12;97051.34;;;9.38;52.34
60228;BME280;46091;46.512;6.626;2023-03-03T14:06:23;97053.16;;;9.37;52.16
60228;BME280;46091;46.512;6.626;2023-03-03T14:08:43;97054.78;;;9.38;52.16
60228;BME280;46091;46.512;6.626;2023-03-03T14:10:57;97048.06;;;9.36;52.30
60228;BME280;46091;46.512;6.626;2023-03-03T14:13:07;97048.44;;;9.32;52.38
60228;BME280;46091;46.512;6.626;2023-03-03T14:15:19;97048.25;;;9.34;52.33
60228;BME280;46091;46.512;6.626;2023-03-03T14:17:30;97046.41;;;9.34;52.11
60228;BME280;46091;46.512;6.626;2023-03-03T14:19:39;97047.78;;;9.30;52.30
60228;BME280;46091;46.512;6.626;2023-03-03T14:22:04;97045.97;;;9.31;52.15
60228;BME280;46091;46.512;6.626;2023-03-03T14:24:14;97043.50;;;9.29;52.42
60228;BME280;46091;46.512;6.626;2023-03-03T14:26:18;97046.16;;;9.29;52.35
60228;BME280;46091;46.512;6.626;2023-03-03T14:28:23;97046.47;;;9.26;52.42
60228;BME280;46091;46.512;6.626;2023-03-03T14:30:30;97049.13;;;9.26;52.37
60228;BME280;46091;46.512;6.626;2023-03-03T14:32:33;97041.31;;;9.33;52.19
60228;BME280;46091;46.512;6.626;2023-03-03T14:34:56;97035.59;;;9.29;52.23
60228;BME280;46091;46.512;6.626;2023-03-03T14:37:21;97043.22;;;9.24;52.16
60228;BME280;46091;46.512;6.626;2023-03-03T14:39:29;97039.75;;;9.24;52.42
60228;BME280;46091;46.512;6.626;2023-03-03T14:41:35;97036.13;;;9.25;52.38
60228;BME280;46091;46.512;6.626;2023-03-03T14:43:41;97026.75;;;9.22;52.39
60228;BME280;46091;46.512;6.626;2023-03-03T14:45:45;97034.94;;;9.27;52.37
60228;BME280;46091;46.512;6.626;2023-03-03T14:47:48;97036.06;;;9.33;52.10
60228;BME280;46091;46.512;6.626;2023-03-03T14:49:52;97032.22;;;9.36;52.34
60228;BME280;46091;46.512;6.626;2023-03-03T14:52:01;97036.88;;;9.33;52.22
60228;BME280;46091;46.512;6.626;2023-03-03T14:54:08;97036.88;;;9.33;52.35
60228;BME280;46091;46.512;6.626;2023-03-03T14:56:22;97033.22;;;9.34;52.06
60228;BME280;46091;46.512;6.626;2023-03-03T14:58:29;97028.94;;;9.33;51.99
60228;BME280;46091;46.512;6.626;2023-03-03T15:00:33;97030.97;;;9.31;52.38
60228;BME280;46091;46.512;6.626;2023-03-03T15:02:39;97030.31;;;9.29;52.17
60228;BME280;46091;46.512;6.626;2023-03-03T15:04:43;97028.50;;;9.30;52.31
60228;BME280;46091;46.512;6.626;2023-03-03T15:06:48;97031.28;;;9.28;52.18
60228;BME280;46091;46.512;6.626;2023-03-03T15:08:51;97029.66;;;9.27;52.44
60228;BME280;46091;46.512;6.626;2023-03-03T15:11:11;97032.59;;;9.32;52.02
60228;BME280;46091;46.512;6.626;2023-03-03T15:13:32;97037.88;;;9.32;52.19
60228;BME280;46091;46.512;6.626;2023-03-03T15:15:51;97028.31;;;9.31;52.04
60228;BME280;46091;46.512;6.626;2023-03-03T15:17:58;97035.22;;;9.32;52.18
60228;BME280;46091;46.512;6.626;2023-03-03T15:20:17;97031.28;;;9.28;51.90
60228;BME280;46091;46.512;6.626;2023-03-03T15:22:37;97033.78;;;9.30;52.27
60228;BME280;46091;46.512;6.626;2023-03-03T15:24:50;97031.13;;;9.30;52.07
60228;BME280;46091;46.512;6.626;2023-03-03T15:27:01;97032.97;;;9.29;52.07
60228;BME280;46091;46.512;6.626;2023-03-03T15:29:15;97031.28;;;9.28;52.11
60228;BME280;46091;46.512;6.626;2023-03-03T15:31:26;97032.59;;;9.32;52.15
60228;BME280;46091;46.512;6.626;2023-03-03T15:33:34;97035.03;;;9.34;52.18
60228;BME280;46091;46.512;6.626;2023-03-03T15:35:47;97035.03;;;9.34;52.08
60228;BME280;46091;46.512;6.626;2023-03-03T15:37:55;97042.78;;;9.36;52.13
60228;BME280;46091;46.512;6.626;2023-03-03T15:40:08;97031.41;;;9.35;51.90
60228;BME280;46091;46.512;6.626;2023-03-03T15:42:21;97035.41;;;9.31;51.86
60228;BME280;46091;46.512;6.626;2023-03-03T15:44:31;97043.50;;;9.29;52.03
60228;BME280;46091;46.512;6.626;2023-03-03T15:46:49;97038.56;;;9.26;52.09
60228;BME280;46091;46.512;6.626;2023-03-03T15:49:03;97047.22;;;9.20;52.14
60228;BME280;46091;46.512;6.626;2023-03-03T15:51:15;97047.72;;;9.16;52.22
60228;BME280;46091;46.512;6.626;2023-03-03T15:53:34;97046.91;;;9.15;52.21
60228;BME280;46091;46.512;6.626;2023-03-03T15:55:49;97040.81;;;9.15;52.03
60228;BME280;46091;46.512;6.626;2023-03-03T15:58:08;97041.63;;;9.15;52.14
60228;BME280;46091;46.512;6.626;2023-03-03T16:00:32;97045.91;;;9.16;52.04
60228;BME280;46091;46.512;6.626;2023-03-03T16:02:44;97050.19;;;9.17;52.28
60228;BME280;46091;46.512;6.626;2023-03-03T16:04:57;97044.91;;;9.17;51.91
60228;BME280;46091;46.512;6.626;2023-03-03T16:07:08;97045.75;;;9.18;52.06
60228;BME280;46091;46.512;6.626;2023-03-03T16:09:25;97051.19;;;9.16;52.16
60228;BME280;46091;46.512;6.626;2023-03-03T16:11:39;97055.47;;;9.17;52.06
60228;BME280;46091;46.512;6.626;2023-03-03T16:14:00;97060.09;;;9.15;52.11
60228;BME280;46091;46.512;6.626;2023-03-03T16:16:15;97062.56;;;9.17;52.26
60228;BME280;46091;46.512;6.626;2023-03-03T16:18:32;97057.94;;;9.19;52.21
60228;BME280;46091;46.512;6.626;2023-03-03T16:20:40;97059.09;;;9.16;52.30
60228;BME280;46091;46.512;6.626;2023-03-03T16:22:52;97054.00;;;9.15;52.22
60228;BME280;46091;46.512;6.626;2023-03-03T16:25:08;97064.75;;;9.13;52.25
60228;BME280;46091;46.512;6.626;2023-03-03T16:27:21;97060.28;;;9.14;52.25
60228;BME280;46091;46.512;6.626;2023-03-03T16:29:37;97060.47;;;9.12;51.97
60228;BME280;46091;46.512;6.626;2023-03-03T16:31:49;97066.75;;;9.11;52.18
60228;BME280;46091;46.512;6.626;2023-03-03T16:34:00;97068.38;;;9.12;52.13
60228;BME280;46091;46.512;6.626;2023-03-03T16:36:21;97073.00;;;9.10;52.35
60228;BME280;46091;46.512;6.626;2023-03-03T16:38:31;97071.56;;;9.08;52.19
60228;BME280;46091;46.512;6.626;2023-03-03T16:40:42;97075.19;;;9.07;52.22
60228;BME280;46091;46.512;6.626;2023-03-03T16:42:50;97076.16;;;9.05;52.14
60228;BME280;46091;46.512;6.626;2023-03-03T16:45:04;97079.78;;;9.04;52.46
60228;BME280;46091;46.512;6.626;2023-03-03T16:47:25;97084.63;;;9.01;52.28
60228;BME280;46091;46.512;6.626;2023-03-03T16:49:33;97080.34;;;9.00;52.21
60228;BME280;46091;46.512;6.626;2023-03-03T16:51:46;97087.25;;;9.01;52.04
60228;BME280;46091;46.512;6.626;2023-03-03T16:53:56;97079.69;;;8.98;52.13
60228;BME280;46091;46.512;6.626;2023-03-03T16:56:07;97085.63;;;9.00;52.30
60228;BME280;46091;46.512;6.626;2023-03-03T16:58:20;97095.16;;;9.01;52.32
60228;BME280;46091;46.512;6.626;2023-03-03T17:00:27;97087.59;;;8.98;52.28
60228;BME280;46091;46.512;6.626;2023-03-03T17:02:51;97087.59;;;8.98;52.28
60228;BME280;46091;46.512;6.626;2023-03-03T17:05:03;97088.59;;;8.97;52.38
60228;BME280;46091;46.512;6.626;2023-03-03T17:07:18;97091.25;;;8.97;52.51
60228;BME280;46091;46.512;6.626;2023-03-03T17:09:43;97090.06;;;8.99;52.52
60228;BME280;46091;46.512;6.626;2023-03-03T17:12:00;97092.53;;;9.01;52.52
60228;BME280;46091;46.512;6.626;2023-03-03T17:14:22;97087.59;;;8.98;52.10
60228;BME280;46091;46.512;6.626;2023-03-03T17:16:34;97093.69;;;8.98;52.13
60228;BME280;46091;46.512;6.626;2023-03-03T17:19:06;97102.44;;;8.99;52.48
60228;BME280;46091;46.512;6.626;2023-03-03T17:21:20;97101.78;;;8.97;52.45
60228;BME280;46091;46.512;6.626;2023-03-03T17:23:50;97108.06;;;8.96;52.14
60228;BME280;46091;46.512;6.626;2023-03-03T17:26:01;97112.97;;;8.99;52.43
60228;BME280;46091;46.512;6.626;2023-03-03T17:28:17;97112.16;;;8.98;52.35
60228;BME280;46091;46.512;6.626;2023-03-03T17:30:30;97112.53;;;8.95;52.41
60228;BME280;46091;46.512;6.626;2023-03-03T17:35:21;97112.16;;;8.98;52.56
60228;BME280;46091;46.512;6.626;2023-03-03T17:37:33;97116.25;;;9.01;52.46
60228;BME280;46091;46.512;6.626;2023-03-03T17:39:52;97119.91;;;9.00;52.07
60228;BME280;46091;46.512;6.626;2023-03-03T17:42:04;97120.53;;;9.02;52.39
60228;BME280;46091;46.512;6.626;2023-03-03T17:44:16;97125.00;;;9.01;52.25
60228;BME280;46091;46.512;6.626;2023-03-03T17:46:28;97127.63;;;9.01;52.22
60228;BME280;46091;46.512;6.626;2023-03-03T17:48:51;97125.81;;;9.02;52.25
60228;BME280;46091;46.512;6.626;2023-03-03T17:51:12;97131.91;;;9.02;52.45
60228;BME280;46091;46.512;6.626;2023-03-03T17:53:32;97130.09;;;9.03;52.58
60228;BME280;46091;46.512;6.626;2023-03-03T17:55:51;97141.28;;;9.05;52.29
60228;BME280;46091;46.512;6.626;2023-03-03T17:58:23;97138.63;;;9.05;52.41
60228;BME280;46091;46.512;6.626;2023-03-03T18:00:45;97141.13;;;9.07;52.22
60228;BME280;46091;46.512;6.626;2023-03-03T18:06:03;97150.19;;;9.04;52.47
60228;BME280;46091;46.512;6.626;2023-03-03T18:08:28;97141.44;;;9.03;52.47
60228;BME280;46091;46.512;6.626;2023-03-03T18:10:46;97147.72;;;9.02;52.76
60228;BME280;46091;46.512;6.626;2023-03-03T18:13:02;97152.81;;;9.04;52.79
60228;BME280;46091;46.512;6.626;2023-03-03T18:15:25;97157.44;;;9.02;52.73
60228;BME280;46091;46.512;6.626;2023-03-03T18:17:36;97150.53;;;9.01;52.57
60228;BME280;46091;46.512;6.626;2023-03-03T18:19:54;97158.44;;;9.01;52.75
60228;BME280;46091;46.512;6.626;2023-03-03T18:22:05;97159.09;;;9.03;52.42
60228;BME280;46091;46.512;6.626;2023-03-03T18:24:33;97150.53;;;9.01;52.49
60228;BME280;46091;46.512;6.626;2023-03-03T18:26:39;97163.53;;;9.02;52.76
60228;BME280;46091;46.512;6.626;2023-03-03T18:28:44;97160.91;;;9.02;52.39
60228;BME280;46091;46.512;6.626;2023-03-03T18:30:56;97164.38;;;9.03;52.58
60228;BME280;46091;46.512;6.626;2023-03-03T18:33:10;97164.38;;;9.03;52.42
60228;BME280;46091;46.512;6.626;2023-03-03T18:35:22;97166.00;;;9.04;52.63
60228;BME280;46091;46.512;6.626;2023-03-03T18:37:38;97169.47;;;9.04;52.82
60228;BME280;46091;46.512;6.626;2023-03-03T18:39:45;97168.00;;;9.02;52.73
60228;BME280;46091;46.512;6.626;2023-03-03T18:42:12;97172.47;;;9.01;52.45
60228;BME280;46091;46.512;6.626;2023-03-03T18:44:32;97176.91;;;9.01;52.51